KVNYKPMD

Guest
Details From KVNY - Van Nuys
To KPMD - Palmdale Rgnl Usaf Plt 42
Flight Number -
Tags Generated
Created
Modified
Stats Distance 31 nm / 58 km
Max Altitude 0 ft / 0 m
Waypoints 2
Social Downloads 1
Likes 0
Share VATSIM

Download

Looking for another format? Having issues loading an existing format? Contact us
Advertisement - Login to hide

Notes

Generated

Route

KVNY KPMD

ID Type Via Altitude Latitude Longitude Leg Dist Tot Dist Heading (true) Name
O KVNY APT - 0 ft / 0 m 34.21899˚ -118.49000˚ - 0 nm - -
O KPMD APT - 0 ft / 0 m 34.62842˚ -118.09449˚ 31 nm 31 nm 38° / 39° -

Altitude Profile

Advertisement - Login to hide

KVNY

Details ICAO KVNY (VNY)
Name Van Nuys
Region United States
Timezone America/Los_Angeles (UTC-8.0)
Stats Elevation 802 ft / 244 m (AMSL)
Location 34.210723° -118.489841°
Runways 2
Magnetic Variation 12.075° E

METAR

KVNY 110651Z AUTO 00000KT 10SM CLR 16/M13 A3019 RMK AO2 SLP217 T01611128

Decode

TAF

KVNY 110525Z 1106/1206 36008KT P6SM BKN250

Decode

Departure Runways

ID Width Length Bearing (true) Bearing (mag) Surface Threshold Offset Overrun Length
16L 75 ft / 23 m 4,021 ft / 1,226 m 175.53° 163.45° Asphalt 1,430 ft / 436 m 0 ft / 0 m
16R 151 ft / 46 m 8,022 ft / 2,445 m 175.54° 163.46° Asphalt 1,430 ft / 436 m 151 ft / 46 m
34L 151 ft / 46 m 8,022 ft / 2,445 m 355.54° 343.46° Asphalt 0 ft / 0 m 151 ft / 46 m
34R 75 ft / 23 m 4,021 ft / 1,226 m 355.53° 343.45° Asphalt 0 ft / 0 m 0 ft / 0 m

KPMD

Details ICAO KPMD (PMD)
Name PALMDALE RGNL USAF PLT 42
Region United States
Timezone America/Los_Angeles (UTC-8.0)
Stats Elevation 2,543 ft / 775 m (AMSL)
Location 34.629387° -118.084551°
Runways 2
Magnetic Variation 12.075° E

METAR

KPMD 110653Z AUTO 22004KT 10SM CLR 04/M15 A3034 RMK AO2 SLP273 T00441150 TSNO

Decode

TAF

KPMD 110525Z 1106/1206 VRB03KT P6SM BKN250 FM112000 04008KT P6SM BKN250 FM120400 VRB03KT P6SM SCT250

Decode

Destination Runways

ID Width Length Bearing (true) Bearing (mag) Surface Threshold Offset Overrun Length
04 150 ft / 46 m 11,998 ft / 3,657 m 51.67° 39.60° Concrete 0 ft / 0 m 1,000 ft / 305 m
07 150 ft / 46 m 11,974 ft / 3,650 m 86.16° 74.09° Concrete 0 ft / 0 m 1,000 ft / 305 m
22 150 ft / 46 m 11,998 ft / 3,657 m 231.69° 219.62° Concrete 0 ft / 0 m 1,000 ft / 305 m
25 150 ft / 46 m 11,974 ft / 3,650 m 266.19° 254.12° Concrete 0 ft / 0 m 998 ft / 304 m

Approach Navaids

Runway Type Ident Frequency Range Bearing (true) Bearing (mag) Slope Elevation
25 Localiser IPMD 110.70 MHz 18 nm / 33 km 266.16° 254.09° - 2,543 ft / 775 m (AMSL)
25 Glidescope IPMD 110.70 MHz 10 nm / 19 km 266.18° 254.10° 3.00° 2,543 ft / 775 m (AMSL)